sensor_id;sensor_type;location;lat;lon;timestamp;temperature;humidity
1179;DHT22;578;48.408;10.004;2023-01-23T00:02:08;-0.60;99.90
1179;DHT22;578;48.408;10.004;2023-01-23T00:04:35;-0.50;99.90
1179;DHT22;578;48.408;10.004;2023-01-23T00:07:01;-0.60;99.90
1179;DHT22;578;48.408;10.004;2023-01-23T00:09:28;-0.60;99.90
1179;DHT22;578;48.408;10.004;2023-01-23T00:11:56;-0.60;99.90
1179;DHT22;578;48.408;10.004;2023-01-23T00:14:23;-0.60;99.90
1179;DHT22;578;48.408;10.004;2023-01-23T00:16:51;-0.60;99.90
1179;DHT22;578;48.408;10.004;2023-01-23T00:19:17;-0.70;99.90
1179;DHT22;578;48.408;10.004;2023-01-23T00:21:44;-0.70;99.90
1179;DHT22;578;48.408;10.004;2023-01-23T00:24:11;-0.70;99.90
1179;DHT22;578;48.408;10.004;2023-01-23T00:26:38;-0.80;99.90
1179;DHT22;578;48.408;10.004;2023-01-23T00:29:05;-0.80;99.90
1179;DHT22;578;48.408;10.004;2023-01-23T00:31:33;-0.80;99.90
1179;DHT22;578;48.408;10.004;2023-01-23T00:34:03;-0.80;99.90
1179;DHT22;578;48.408;10.004;2023-01-23T00:36:32;-0.90;99.90
1179;DHT22;578;48.408;10.004;2023-01-23T00:38:59;-0.80;99.90
1179;DHT22;578;48.408;10.004;2023-01-23T00:41:26;-0.80;99.90
1179;DHT22;578;48.408;10.004;2023-01-23T00:43:53;-0.80;99.90
1179;DHT22;578;48.408;10.004;2023-01-23T00:46:20;-0.90;99.90
1179;DHT22;578;48.408;10.004;2023-01-23T00:48:47;-0.90;99.90
1179;DHT22;578;48.408;10.004;2023-01-23T00:51:15;-0.80;99.90
1179;DHT22;578;48.408;10.004;2023-01-23T00:53:43;-0.90;99.90
1179;DHT22;578;48.408;10.004;2023-01-23T00:56:10;-0.90;99.90
1179;DHT22;578;48.408;10.004;2023-01-23T00:58:37;-0.80;99.90
1179;DHT22;578;48.408;10.004;2023-01-23T01:01:04;-0.80;99.90
1179;DHT22;578;48.408;10.004;2023-01-23T01:03:31;-0.90;99.90
1179;DHT22;578;48.408;10.004;2023-01-23T01:05:58;-0.90;99.90
1179;DHT22;578;48.408;10.004;2023-01-23T01:08:26;-0.90;99.90
1179;DHT22;578;48.408;10.004;2023-01-23T01:10:53;-0.90;99.90
1179;DHT22;578;48.408;10.004;2023-01-23T01:13:19;-0.80;99.90
1179;DHT22;578;48.408;10.004;2023-01-23T01:15:48;-0.80;99.90
1179;DHT22;578;48.408;10.004;2023-01-23T01:18:15;-0.90;99.90
1179;DHT22;578;48.408;10.004;2023-01-23T01:20:43;-0.80;99.90
1179;DHT22;578;48.408;10.004;2023-01-23T01:23:10;-0.80;99.90
1179;DHT22;578;48.408;10.004;2023-01-23T01:25:39;-0.90;99.90
1179;DHT22;578;48.408;10.004;2023-01-23T01:28:06;-0.80;99.90
1179;DHT22;578;48.408;10.004;2023-01-23T01:30:33;-0.80;99.90
1179;DHT22;578;48.408;10.004;2023-01-23T01:33:01;-0.80;99.90
1179;DHT22;578;48.408;10.004;2023-01-23T01:35:28;-0.80;99.90
1179;DHT22;578;48.408;10.004;2023-01-23T01:37:54;-0.80;99.90
1179;DHT22;578;48.408;10.004;2023-01-23T01:40:23;-0.70;99.90
1179;DHT22;578;48.408;10.004;2023-01-23T01:42:55;-0.80;99.90
1179;DHT22;578;48.408;10.004;2023-01-23T01:46:00;-0.80;99.90
1179;DHT22;578;48.408;10.004;2023-01-23T01:48:32;-0.80;99.90
1179;DHT22;578;48.408;10.004;2023-01-23T01:51:00;-0.80;99.90
1179;DHT22;578;48.408;10.004;2023-01-23T01:53:29;-0.80;99.90
1179;DHT22;578;48.408;10.004;2023-01-23T01:55:57;-0.80;99.90
1179;DHT22;578;48.408;10.004;2023-01-23T01:58:26;-0.80;99.90
1179;DHT22;578;48.408;10.004;2023-01-23T02:00:53;-0.80;99.90
1179;DHT22;578;48.408;10.004;2023-01-23T02:03:22;-0.80;99.90
1179;DHT22;578;48.408;10.004;2023-01-23T02:05:49;-0.80;99.90
1179;DHT22;578;48.408;10.004;2023-01-23T02:08:21;-0.80;99.90
1179;DHT22;578;48.408;10.004;2023-01-23T02:10:48;-0.80;99.90
1179;DHT22;578;48.408;10.004;2023-01-23T02:13:22;-0.80;99.90
1179;DHT22;578;48.408;10.004;2023-01-23T02:15:52;-0.90;99.90
1179;DHT22;578;48.408;10.004;2023-01-23T02:18:19;-0.90;99.90
1179;DHT22;578;48.408;10.004;2023-01-23T02:20:47;-0.90;99.90
1179;DHT22;578;48.408;10.004;2023-01-23T02:23:23;-0.90;99.90
1179;DHT22;578;48.408;10.004;2023-01-23T02:25:58;-0.90;99.90
1179;DHT22;578;48.408;10.004;2023-01-23T02:28:36;-0.90;99.90
1179;DHT22;578;48.408;10.004;2023-01-23T02:31:03;-0.90;99.90
1179;DHT22;578;48.408;10.004;2023-01-23T02:33:48;-0.90;99.90
1179;DHT22;578;48.408;10.004;2023-01-23T02:36:17;-1.00;99.90
1179;DHT22;578;48.408;10.004;2023-01-23T02:38:50;-1.00;99.90
1179;DHT22;578;48.408;10.004;2023-01-23T02:41:23;-1.00;99.90
1179;DHT22;578;48.408;10.004;2023-01-23T02:43:52;-1.00;99.90
1179;DHT22;578;48.408;10.004;2023-01-23T02:46:19;-1.00;99.90
1179;DHT22;578;48.408;10.004;2023-01-23T02:48:45;-0.90;99.90
1179;DHT22;578;48.408;10.004;2023-01-23T02:51:13;-0.90;99.90
1179;DHT22;578;48.408;10.004;2023-01-23T02:53:41;-1.00;99.90
1179;DHT22;578;48.408;10.004;2023-01-23T02:56:08;-0.90;99.90
1179;DHT22;578;48.408;10.004;2023-01-23T02:58:36;-0.90;99.90
1179;DHT22;578;48.408;10.004;2023-01-23T03:01:20;-0.90;99.90
1179;DHT22;578;48.408;10.004;2023-01-23T03:03:47;-0.90;99.90
1179;DHT22;578;48.408;10.004;2023-01-23T03:06:16;-0.90;99.90
1179;DHT22;578;48.408;10.004;2023-01-23T03:08:42;-0.90;99.90
1179;DHT22;578;48.408;10.004;2023-01-23T03:11:14;-0.90;99.90
1179;DHT22;578;48.408;10.004;2023-01-23T03:13:43;-1.00;99.90
1179;DHT22;578;48.408;10.004;2023-01-23T03:16:10;-0.90;99.90
1179;DHT22;578;48.408;10.004;2023-01-23T03:18:37;-1.00;99.90
1179;DHT22;578;48.408;10.004;2023-01-23T03:21:05;-1.00;99.90
1179;DHT22;578;48.408;10.004;2023-01-23T03:23:32;-1.00;99.90
1179;DHT22;578;48.408;10.004;2023-01-23T03:25:59;-1.00;99.90
1179;DHT22;578;48.408;10.004;2023-01-23T03:28:26;-1.00;99.90
1179;DHT22;578;48.408;10.004;2023-01-23T03:31:12;-1.00;99.90
1179;DHT22;578;48.408;10.004;2023-01-23T03:33:39;-1.00;99.90
1179;DHT22;578;48.408;10.004;2023-01-23T03:36:07;-1.00;99.90
1179;DHT22;578;48.408;10.004;2023-01-23T03:38:35;-1.00;99.90
1179;DHT22;578;48.408;10.004;2023-01-23T03:41:02;-1.00;99.90
1179;DHT22;578;48.408;10.004;2023-01-23T03:43:46;-1.00;99.90
1179;DHT22;578;48.408;10.004;2023-01-23T03:46:14;-1.00;99.90
1179;DHT22;578;48.408;10.004;2023-01-23T03:48:41;-1.00;99.90
1179;DHT22;578;48.408;10.004;2023-01-23T03:51:07;-1.00;99.90
1179;DHT22;578;48.408;10.004;2023-01-23T03:53:34;-1.00;99.90
1179;DHT22;578;48.408;10.004;2023-01-23T03:56:01;-1.00;99.90
1179;DHT22;578;48.408;10.004;2023-01-23T03:58:27;-1.00;99.90
1179;DHT22;578;48.408;10.004;2023-01-23T04:00:55;-1.00;99.90
1179;DHT22;578;48.408;10.004;2023-01-23T04:03:23;-1.00;99.90
1179;DHT22;578;48.408;10.004;2023-01-23T04:05:54;-1.00;99.90
1179;DHT22;578;48.408;10.004;2023-01-23T04:08:21;-1.00;99.90
1179;DHT22;578;48.408;10.004;2023-01-23T04:10:48;-1.00;99.90
1179;DHT22;578;48.408;10.004;2023-01-23T04:13:14;-1.00;99.90
1179;DHT22;578;48.408;10.004;2023-01-23T04:15:41;-1.00;99.90
1179;DHT22;578;48.408;10.004;2023-01-23T04:18:08;-1.00;99.90
1179;DHT22;578;48.408;10.004;2023-01-23T04:20:36;-1.00;99.90
1179;DHT22;578;48.408;10.004;2023-01-23T04:23:03;-0.90;99.90
1179;DHT22;578;48.408;10.004;2023-01-23T04:25:29;-1.00;99.90
1179;DHT22;578;48.408;10.004;2023-01-23T04:27:56;-1.00;99.90
1179;DHT22;578;48.408;10.004;2023-01-23T04:30:23;-1.00;99.90
1179;DHT22;578;48.408;10.004;2023-01-23T04:32:49;-1.00;99.90
1179;DHT22;578;48.408;10.004;2023-01-23T04:35:16;-1.00;99.90
1179;DHT22;578;48.408;10.004;2023-01-23T04:37:44;-1.00;99.90
1179;DHT22;578;48.408;10.004;2023-01-23T04:40:11;-1.00;99.90
1179;DHT22;578;48.408;10.004;2023-01-23T04:42:38;-1.00;99.90
1179;DHT22;578;48.408;10.004;2023-01-23T04:45:06;-1.00;99.90
1179;DHT22;578;48.408;10.004;2023-01-23T04:47:33;-1.10;99.90
1179;DHT22;578;48.408;10.004;2023-01-23T04:49:59;-1.10;99.90
1179;DHT22;578;48.408;10.004;2023-01-23T04:52:26;-1.20;99.90
1179;DHT22;578;48.408;10.004;2023-01-23T04:54:55;-1.20;99.90
1179;DHT22;578;48.408;10.004;2023-01-23T04:57:22;-1.20;99.90
1179;DHT22;578;48.408;10.004;2023-01-23T04:59:49;-1.20;99.90
1179;DHT22;578;48.408;10.004;2023-01-23T05:02:15;-1.30;99.90
1179;DHT22;578;48.408;10.004;2023-01-23T05:04:42;-1.30;99.90
1179;DHT22;578;48.408;10.004;2023-01-23T05:07:09;-1.20;99.90
1179;DHT22;578;48.408;10.004;2023-01-23T05:09:37;-1.20;99.90
1179;DHT22;578;48.408;10.004;2023-01-23T05:12:05;-1.40;99.90
1179;DHT22;578;48.408;10.004;2023-01-23T05:14:32;-1.40;99.90
1179;DHT22;578;48.408;10.004;2023-01-23T05:16:59;-1.50;99.90
1179;DHT22;578;48.408;10.004;2023-01-23T05:19:26;-1.60;99.90
1179;DHT22;578;48.408;10.004;2023-01-23T05:21:52;-1.60;99.90
1179;DHT22;578;48.408;10.004;2023-01-23T05:24:19;-1.50;99.90
1179;DHT22;578;48.408;10.004;2023-01-23T05:26:46;-1.50;99.90
1179;DHT22;578;48.408;10.004;2023-01-23T05:29:14;-1.60;99.90
1179;DHT22;578;48.408;10.004;2023-01-23T05:31:40;-1.50;99.90
1179;DHT22;578;48.408;10.004;2023-01-23T05:34:07;-1.50;99.90
1179;DHT22;578;48.408;10.004;2023-01-23T05:36:34;-1.40;99.90
1179;DHT22;578;48.408;10.004;2023-01-23T05:39:00;-1.40;99.90
1179;DHT22;578;48.408;10.004;2023-01-23T05:41:27;-1.50;99.90
1179;DHT22;578;48.408;10.004;2023-01-23T05:43:54;-1.50;99.90
1179;DHT22;578;48.408;10.004;2023-01-23T05:46:22;-1.50;99.90
1179;DHT22;578;48.408;10.004;2023-01-23T05:48:49;-1.50;99.90
1179;DHT22;578;48.408;10.004;2023-01-23T05:51:16;-1.50;99.90
1179;DHT22;578;48.408;10.004;2023-01-23T05:53:42;-1.50;99.90
1179;DHT22;578;48.408;10.004;2023-01-23T05:56:09;-1.50;99.90
1179;DHT22;578;48.408;10.004;2023-01-23T05:58:36;-1.40;99.90
1179;DHT22;578;48.408;10.004;2023-01-23T06:01:03;-1.50;99.90
1179;DHT22;578;48.408;10.004;2023-01-23T06:03:31;-1.40;99.90
1179;DHT22;578;48.408;10.004;2023-01-23T06:05:59;-1.40;99.90
1179;DHT22;578;48.408;10.004;2023-01-23T06:08:27;-1.40;99.90
1179;DHT22;578;48.408;10.004;2023-01-23T06:10:53;-1.40;99.90
1179;DHT22;578;48.408;10.004;2023-01-23T06:13:23;-1.40;99.90
1179;DHT22;578;48.408;10.004;2023-01-23T06:15:50;-1.40;99.90
1179;DHT22;578;48.408;10.004;2023-01-23T06:18:17;-1.40;99.90
1179;DHT22;578;48.408;10.004;2023-01-23T06:20:45;-1.40;99.90
1179;DHT22;578;48.408;10.004;2023-01-23T06:23:12;-1.40;99.90
1179;DHT22;578;48.408;10.004;2023-01-23T06:25:39;-1.40;99.90
1179;DHT22;578;48.408;10.004;2023-01-23T06:28:06;-1.40;99.90
1179;DHT22;578;48.408;10.004;2023-01-23T06:30:33;-1.40;99.90
1179;DHT22;578;48.408;10.004;2023-01-23T06:32:59;-1.40;99.90
1179;DHT22;578;48.408;10.004;2023-01-23T06:35:26;-1.30;99.90
1179;DHT22;578;48.408;10.004;2023-01-23T06:37:54;-1.30;99.90
1179;DHT22;578;48.408;10.004;2023-01-23T06:40:21;-1.30;99.90
1179;DHT22;578;48.408;10.004;2023-01-23T06:42:47;-1.30;99.90
1179;DHT22;578;48.408;10.004;2023-01-23T06:45:15;-1.30;99.90
1179;DHT22;578;48.408;10.004;2023-01-23T06:47:42;-1.30;99.90
1179;DHT22;578;48.408;10.004;2023-01-23T06:50:09;-1.30;99.90
1179;DHT22;578;48.408;10.004;2023-01-23T06:52:36;-1.30;99.90
1179;DHT22;578;48.408;10.004;2023-01-23T06:55:05;-1.30;99.90
1179;DHT22;578;48.408;10.004;2023-01-23T06:57:32;-1.30;99.90
1179;DHT22;578;48.408;10.004;2023-01-23T06:59:59;-1.30;99.90
1179;DHT22;578;48.408;10.004;2023-01-23T07:02:26;-1.30;99.90
1179;DHT22;578;48.408;10.004;2023-01-23T07:04:52;-1.30;99.90
1179;DHT22;578;48.408;10.004;2023-01-23T07:07:19;-1.20;99.90
1179;DHT22;578;48.408;10.004;2023-01-23T07:09:46;-1.20;99.90
1179;DHT22;578;48.408;10.004;2023-01-23T07:12:14;-1.20;99.90
1179;DHT22;578;48.408;10.004;2023-01-23T07:14:40;-1.20;99.90
1179;DHT22;578;48.408;10.004;2023-01-23T07:17:07;-1.20;99.90
1179;DHT22;578;48.408;10.004;2023-01-23T07:19:34;-1.30;99.90
1179;DHT22;578;48.408;10.004;2023-01-23T07:22:00;-1.20;99.90
1179;DHT22;578;48.408;10.004;2023-01-23T07:24:27;-1.20;99.90
1179;DHT22;578;48.408;10.004;2023-01-23T07:26:56;-1.20;99.90
1179;DHT22;578;48.408;10.004;2023-01-23T07:29:24;-1.20;99.90
1179;DHT22;578;48.408;10.004;2023-01-23T07:31:51;-1.20;99.90
1179;DHT22;578;48.408;10.004;2023-01-23T07:34:18;-1.20;99.90
1179;DHT22;578;48.408;10.004;2023-01-23T07:36:45;-1.20;99.90
1179;DHT22;578;48.408;10.004;2023-01-23T07:39:11;-1.10;99.90
1179;DHT22;578;48.408;10.004;2023-01-23T07:41:38;-1.10;99.90
1179;DHT22;578;48.408;10.004;2023-01-23T07:44:05;-1.10;99.90
1179;DHT22;578;48.408;10.004;2023-01-23T07:46:33;-1.00;99.90
1179;DHT22;578;48.408;10.004;2023-01-23T07:49:00;-1.00;99.90
1179;DHT22;578;48.408;10.004;2023-01-23T07:51:26;-1.00;99.90
1179;DHT22;578;48.408;10.004;2023-01-23T07:53:53;-0.90;99.90
1179;DHT22;578;48.408;10.004;2023-01-23T07:56:20;-0.90;99.90
1179;DHT22;578;48.408;10.004;2023-01-23T07:58:48;-0.80;99.90
1179;DHT22;578;48.408;10.004;2023-01-23T08:01:16;-0.80;99.90
1179;DHT22;578;48.408;10.004;2023-01-23T08:03:45;-0.80;99.90
1179;DHT22;578;48.408;10.004;2023-01-23T08:06:12;-0.70;99.90
1179;DHT22;578;48.408;10.004;2023-01-23T08:08:38;-0.70;99.90
1179;DHT22;578;48.408;10.004;2023-01-23T08:11:06;-0.70;99.90
1179;DHT22;578;48.408;10.004;2023-01-23T08:13:35;-0.60;99.90
1179;DHT22;578;48.408;10.004;2023-01-23T08:16:02;-0.60;99.90
1179;DHT22;578;48.408;10.004;2023-01-23T08:18:29;-0.60;99.90
1179;DHT22;578;48.408;10.004;2023-01-23T08:20:58;-0.50;99.90
1179;DHT22;578;48.408;10.004;2023-01-23T08:23:26;-0.50;99.90
1179;DHT22;578;48.408;10.004;2023-01-23T08:25:53;-0.50;99.90
1179;DHT22;578;48.408;10.004;2023-01-23T08:28:21;-0.50;99.90
1179;DHT22;578;48.408;10.004;2023-01-23T08:30:48;-0.40;99.90
1179;DHT22;578;48.408;10.004;2023-01-23T08:33:15;-0.40;99.90
1179;DHT22;578;48.408;10.004;2023-01-23T08:35:47;-0.40;99.90
1179;DHT22;578;48.408;10.004;2023-01-23T08:38:16;-0.50;99.90
1179;DHT22;578;48.408;10.004;2023-01-23T08:40:43;-0.50;99.90
1179;DHT22;578;48.408;10.004;2023-01-23T08:43:10;-0.40;99.90
1179;DHT22;578;48.408;10.004;2023-01-23T08:45:38;-0.50;99.90
1179;DHT22;578;48.408;10.004;2023-01-23T08:48:05;-0.50;99.90
1179;DHT22;578;48.408;10.004;2023-01-23T08:50:32;-0.40;99.90
1179;DHT22;578;48.408;10.004;2023-01-23T08:52:59;-0.50;99.90
1179;DHT22;578;48.408;10.004;2023-01-23T08:55:27;-0.40;99.90
1179;DHT22;578;48.408;10.004;2023-01-23T08:57:54;-0.30;99.90
1179;DHT22;578;48.408;10.004;2023-01-23T09:00:21;-0.40;99.90
1179;DHT22;578;48.408;10.004;2023-01-23T09:02:48;-0.10;99.90
1179;DHT22;578;48.408;10.004;2023-01-23T09:05:16;-0.30;99.90
1179;DHT22;578;48.408;10.004;2023-01-23T09:07:43;-0.20;99.90
1179;DHT22;578;48.408;10.004;2023-01-23T09:10:10;-0.20;99.90
1179;DHT22;578;48.408;10.004;2023-01-23T09:12:39;-0.20;99.90
1179;DHT22;578;48.408;10.004;2023-01-23T09:15:08;-0.10;99.90
1179;DHT22;578;48.408;10.004;2023-01-23T09:17:35;0.00;99.90
1179;DHT22;578;48.408;10.004;2023-01-23T09:20:01;-0.10;99.90
1179;DHT22;578;48.408;10.004;2023-01-23T09:22:30;-0.10;99.90
1179;DHT22;578;48.408;10.004;2023-01-23T09:24:57;-0.10;99.90
1179;DHT22;578;48.408;10.004;2023-01-23T09:27:24;-0.10;99.90
1179;DHT22;578;48.408;10.004;2023-01-23T09:29:52;-0.20;99.90
1179;DHT22;578;48.408;10.004;2023-01-23T09:32:19;-0.20;99.90
1179;DHT22;578;48.408;10.004;2023-01-23T09:34:45;-0.10;99.90
1179;DHT22;578;48.408;10.004;2023-01-23T09:37:14;-0.10;99.90
1179;DHT22;578;48.408;10.004;2023-01-23T09:39:41;-0.10;99.90
1179;DHT22;578;48.408;10.004;2023-01-23T09:42:13;-0.20;99.90
1179;DHT22;578;48.408;10.004;2023-01-23T09:44:44;-0.10;99.90
1179;DHT22;578;48.408;10.004;2023-01-23T09:47:17;-0.10;99.90
1179;DHT22;578;48.408;10.004;2023-01-23T09:49:50;-0.10;99.90
1179;DHT22;578;48.408;10.004;2023-01-23T09:52:21;-0.10;99.90
1179;DHT22;578;48.408;10.004;2023-01-23T09:54:52;0.00;99.90
1179;DHT22;578;48.408;10.004;2023-01-23T09:57:24;0.10;99.90
1179;DHT22;578;48.408;10.004;2023-01-23T09:59:58;0.20;99.90
1179;DHT22;578;48.408;10.004;2023-01-23T10:02:27;0.10;99.90
1179;DHT22;578;48.408;10.004;2023-01-23T10:04:56;0.10;99.90
1179;DHT22;578;48.408;10.004;2023-01-23T10:07:37;0.20;99.90
1179;DHT22;578;48.408;10.004;2023-01-23T10:10:19;0.20;99.90
1179;DHT22;578;48.408;10.004;2023-01-23T10:12:54;0.20;99.90
1179;DHT22;578;48.408;10.004;2023-01-23T10:15:31;0.20;99.90
1179;DHT22;578;48.408;10.004;2023-01-23T10:18:12;0.20;99.90
1179;DHT22;578;48.408;10.004;2023-01-23T10:20:48;0.20;99.90
1179;DHT22;578;48.408;10.004;2023-01-23T10:23:30;0.20;99.90
1179;DHT22;578;48.408;10.004;2023-01-23T10:26:02;0.10;99.90
1179;DHT22;578;48.408;10.004;2023-01-23T10:28:32;0.10;99.90
1179;DHT22;578;48.408;10.004;2023-01-23T10:31:06;0.00;99.90
1179;DHT22;578;48.408;10.004;2023-01-23T10:33:42;0.10;99.90
1179;DHT22;578;48.408;10.004;2023-01-23T10:36:19;0.10;99.90
1179;DHT22;578;48.408;10.004;2023-01-23T10:38:52;0.20;99.90
1179;DHT22;578;48.408;10.004;2023-01-23T10:41:20;0.20;99.90
1179;DHT22;578;48.408;10.004;2023-01-23T10:43:49;0.20;99.90
1179;DHT22;578;48.408;10.004;2023-01-23T10:46:17;0.20;99.90
1179;DHT22;578;48.408;10.004;2023-01-23T10:48:48;0.40;99.90
1179;DHT22;578;48.408;10.004;2023-01-23T10:51:27;0.40;99.90
1179;DHT22;578;48.408;10.004;2023-01-23T10:54:04;0.50;99.90
1179;DHT22;578;48.408;10.004;2023-01-23T10:56:32;0.40;99.90
1179;DHT22;578;48.408;10.004;2023-01-23T10:59:01;0.30;99.90
1179;DHT22;578;48.408;10.004;2023-01-23T11:01:30;0.40;99.90
1179;DHT22;578;48.408;10.004;2023-01-23T11:04:09;0.30;99.90
1179;DHT22;578;48.408;10.004;2023-01-23T11:06:36;0.50;99.90
1179;DHT22;578;48.408;10.004;2023-01-23T11:09:07;0.50;99.90
1179;DHT22;578;48.408;10.004;2023-01-23T11:11:43;0.50;99.90
1179;DHT22;578;48.408;10.004;2023-01-23T11:14:11;0.40;99.90
1179;DHT22;578;48.408;10.004;2023-01-23T11:16:39;0.30;99.90
1179;DHT22;578;48.408;10.004;2023-01-23T11:19:15;0.40;99.90
1179;DHT22;578;48.408;10.004;2023-01-23T11:21:54;0.40;99.90
1179;DHT22;578;48.408;10.004;2023-01-23T11:24:29;0.40;99.90
1179;DHT22;578;48.408;10.004;2023-01-23T11:27:01;0.50;99.90
1179;DHT22;578;48.408;10.004;2023-01-23T11:29:29;0.70;99.90
1179;DHT22;578;48.408;10.004;2023-01-23T11:31:59;0.80;99.90
1179;DHT22;578;48.408;10.004;2023-01-23T11:34:33;0.80;99.90
1179;DHT22;578;48.408;10.004;2023-01-23T11:37:07;0.70;99.90
1179;DHT22;578;48.408;10.004;2023-01-23T11:39:41;0.80;99.90
1179;DHT22;578;48.408;10.004;2023-01-23T11:42:10;0.80;99.90
1179;DHT22;578;48.408;10.004;2023-01-23T11:44:37;1.10;99.90
1179;DHT22;578;48.408;10.004;2023-01-23T11:50:15;1.10;99.90
1179;DHT22;578;48.408;10.004;2023-01-23T11:52:48;1.20;99.90
1179;DHT22;578;48.408;10.004;2023-01-23T11:55:32;1.30;99.90
1179;DHT22;578;48.408;10.004;2023-01-23T11:58:12;1.40;99.90
1179;DHT22;578;48.408;10.004;2023-01-23T12:00:43;1.40;99.90
1179;DHT22;578;48.408;10.004;2023-01-23T12:03:46;1.40;99.90
1179;DHT22;578;48.408;10.004;2023-01-23T12:06:33;1.40;99.90
1179;DHT22;578;48.408;10.004;2023-01-23T12:09:09;1.30;99.90
1179;DHT22;578;48.408;10.004;2023-01-23T12:11:58;1.30;99.90
1179;DHT22;578;48.408;10.004;2023-01-23T12:14:31;1.40;99.90
1179;DHT22;578;48.408;10.004;2023-01-23T12:17:08;1.50;99.90
1179;DHT22;578;48.408;10.004;2023-01-23T12:19:47;1.70;99.90
1179;DHT22;578;48.408;10.004;2023-01-23T12:22:26;1.60;99.90
1179;DHT22;578;48.408;10.004;2023-01-23T12:25:05;1.50;99.90
1179;DHT22;578;48.408;10.004;2023-01-23T12:27:40;1.40;99.90
1179;DHT22;578;48.408;10.004;2023-01-23T12:30:28;1.40;99.90
1179;DHT22;578;48.408;10.004;2023-01-23T12:33:05;1.50;99.90
1179;DHT22;578;48.408;10.004;2023-01-23T12:35:45;1.50;99.90
1179;DHT22;578;48.408;10.004;2023-01-23T12:38:23;1.50;99.90
1179;DHT22;578;48.408;10.004;2023-01-23T12:40:54;1.50;99.90
1179;DHT22;578;48.408;10.004;2023-01-23T12:43:30;1.40;99.90
1179;DHT22;578;48.408;10.004;2023-01-23T12:46:04;1.40;99.90
1179;DHT22;578;48.408;10.004;2023-01-23T12:48:34;1.50;99.90
1179;DHT22;578;48.408;10.004;2023-01-23T12:51:07;1.60;99.90
1179;DHT22;578;48.408;10.004;2023-01-23T12:53:38;1.60;99.90
1179;DHT22;578;48.408;10.004;2023-01-23T12:56:11;1.50;99.90
1179;DHT22;578;48.408;10.004;2023-01-23T12:58:40;1.60;99.90
1179;DHT22;578;48.408;10.004;2023-01-23T13:01:33;1.60;99.90
1179;DHT22;578;48.408;10.004;2023-01-23T13:04:17;1.60;99.90
1179;DHT22;578;48.408;10.004;2023-01-23T13:09:56;1.80;99.90
1179;DHT22;578;48.408;10.004;2023-01-23T13:12:25;1.90;99.90
1179;DHT22;578;48.408;10.004;2023-01-23T13:14:53;1.80;99.90
1179;DHT22;578;48.408;10.004;2023-01-23T13:17:46;1.80;99.90
1179;DHT22;578;48.408;10.004;2023-01-23T13:20:34;1.90;99.90
1179;DHT22;578;48.408;10.004;2023-01-23T13:23:25;1.90;99.90
1179;DHT22;578;48.408;10.004;2023-01-23T13:26:23;1.90;99.90
1179;DHT22;578;48.408;10.004;2023-01-23T13:28:54;1.80;99.90
1179;DHT22;578;48.408;10.004;2023-01-23T13:31:32;1.90;99.90
1179;DHT22;578;48.408;10.004;2023-01-23T13:34:02;1.90;99.90
1179;DHT22;578;48.408;10.004;2023-01-23T13:36:36;1.90;99.90
1179;DHT22;578;48.408;10.004;2023-01-23T13:39:22;1.90;99.90
1179;DHT22;578;48.408;10.004;2023-01-23T13:41:52;1.80;99.90
1179;DHT22;578;48.408;10.004;2023-01-23T13:47:48;1.80;99.90
1179;DHT22;578;48.408;10.004;2023-01-23T13:50:37;1.80;99.90
1179;DHT22;578;48.408;10.004;2023-01-23T13:53:14;1.80;99.90
1179;DHT22;578;48.408;10.004;2023-01-23T13:55:59;1.80;99.90
1179;DHT22;578;48.408;10.004;2023-01-23T13:58:57;1.80;99.90
1179;DHT22;578;48.408;10.004;2023-01-23T14:01:29;1.80;99.90
1179;DHT22;578;48.408;10.004;2023-01-23T14:04:18;1.70;99.90
1179;DHT22;578;48.408;10.004;2023-01-23T14:07:22;1.70;99.90
1179;DHT22;578;48.408;10.004;2023-01-23T14:10:16;1.80;99.90
1179;DHT22;578;48.408;10.004;2023-01-23T14:12:43;1.80;99.90
1179;DHT22;578;48.408;10.004;2023-01-23T14:15:17;1.80;99.90
1179;DHT22;578;48.408;10.004;2023-01-23T14:18:03;1.90;99.90
1179;DHT22;578;48.408;10.004;2023-01-23T14:20:33;1.90;99.90
1179;DHT22;578;48.408;10.004;2023-01-23T14:23:04;1.80;99.90
1179;DHT22;578;48.408;10.004;2023-01-23T14:25:32;1.90;99.90
1179;DHT22;578;48.408;10.004;2023-01-23T14:28:02;1.90;99.90
1179;DHT22;578;48.408;10.004;2023-01-23T14:30:29;1.90;99.90
1179;DHT22;578;48.408;10.004;2023-01-23T14:32:56;1.90;99.90
1179;DHT22;578;48.408;10.004;2023-01-23T14:35:27;1.80;99.90
1179;DHT22;578;48.408;10.004;2023-01-23T14:37:56;1.80;99.90
1179;DHT22;578;48.408;10.004;2023-01-23T14:40:23;1.80;99.90
1179;DHT22;578;48.408;10.004;2023-01-23T14:42:55;1.80;99.90
1179;DHT22;578;48.408;10.004;2023-01-23T14:45:23;1.80;99.90
1179;DHT22;578;48.408;10.004;2023-01-23T14:47:51;1.80;99.90
1179;DHT22;578;48.408;10.004;2023-01-23T14:50:21;1.80;99.90
1179;DHT22;578;48.408;10.004;2023-01-23T14:52:57;1.90;99.90
1179;DHT22;578;48.408;10.004;2023-01-23T14:55:25;1.80;99.90
1179;DHT22;578;48.408;10.004;2023-01-23T14:57:53;1.80;99.90
1179;DHT22;578;48.408;10.004;2023-01-23T15:00:22;1.80;99.90
1179;DHT22;578;48.408;10.004;2023-01-23T15:02:49;1.80;99.90
1179;DHT22;578;48.408;10.004;2023-01-23T15:05:20;1.80;99.90
1179;DHT22;578;48.408;10.004;2023-01-23T15:07:50;1.80;99.90
1179;DHT22;578;48.408;10.004;2023-01-23T15:10:22;1.80;99.90
1179;DHT22;578;48.408;10.004;2023-01-23T15:12:53;1.90;99.90
1179;DHT22;578;48.408;10.004;2023-01-23T15:15:22;1.80;99.90
1179;DHT22;578;48.408;10.004;2023-01-23T15:17:49;1.80;99.90
1179;DHT22;578;48.408;10.004;2023-01-23T15:20:28;1.80;99.90
1179;DHT22;578;48.408;10.004;2023-01-23T15:22:55;1.80;99.90
1179;DHT22;578;48.408;10.004;2023-01-23T15:25:28;1.80;99.90
1179;DHT22;578;48.408;10.004;2023-01-23T15:27:54;1.70;99.90
1179;DHT22;578;48.408;10.004;2023-01-23T15:30:36;1.80;99.90
1179;DHT22;578;48.408;10.004;2023-01-23T15:33:23;1.80;99.90
1179;DHT22;578;48.408;10.004;2023-01-23T15:35:50;1.80;99.90
1179;DHT22;578;48.408;10.004;2023-01-23T15:38:18;1.80;99.90
1179;DHT22;578;48.408;10.004;2023-01-23T15:40:46;1.70;99.90
1179;DHT22;578;48.408;10.004;2023-01-23T15:43:16;1.80;99.90
1179;DHT22;578;48.408;10.004;2023-01-23T15:45:43;1.80;99.90
1179;DHT22;578;48.408;10.004;2023-01-23T15:48:10;1.80;99.90
1179;DHT22;578;48.408;10.004;2023-01-23T15:50:36;1.80;99.90
1179;DHT22;578;48.408;10.004;2023-01-23T15:53:09;1.70;99.90
1179;DHT22;578;48.408;10.004;2023-01-23T15:55:37;1.80;99.90
1179;DHT22;578;48.408;10.004;2023-01-23T15:58:05;1.70;99.90
1179;DHT22;578;48.408;10.004;2023-01-23T16:00:32;1.80;99.90
1179;DHT22;578;48.408;10.004;2023-01-23T16:02:59;1.80;99.90
1179;DHT22;578;48.408;10.004;2023-01-23T16:05:28;1.80;99.90
1179;DHT22;578;48.408;10.004;2023-01-23T16:07:56;1.70;99.90
1179;DHT22;578;48.408;10.004;2023-01-23T16:10:27;1.70;99.90
1179;DHT22;578;48.408;10.004;2023-01-23T16:12:55;1.80;99.90
1179;DHT22;578;48.408;10.004;2023-01-23T16:15:25;1.80;99.90
1179;DHT22;578;48.408;10.004;2023-01-23T16:17:52;1.80;99.90
1179;DHT22;578;48.408;10.004;2023-01-23T16:20:22;1.80;99.90
1179;DHT22;578;48.408;10.004;2023-01-23T16:22:50;1.80;99.90
1179;DHT22;578;48.408;10.004;2023-01-23T16:25:20;1.90;99.90
1179;DHT22;578;48.408;10.004;2023-01-23T16:27:48;1.80;99.90
1179;DHT22;578;48.408;10.004;2023-01-23T16:30:16;1.80;99.90
1179;DHT22;578;48.408;10.004;2023-01-23T16:32:45;1.80;99.90
1179;DHT22;578;48.408;10.004;2023-01-23T16:35:13;1.80;99.90
1179;DHT22;578;48.408;10.004;2023-01-23T16:37:44;1.70;99.90